Time;durP1;ratioP1;P1;durP2;ratioP2;P2;SDS_P1;SDS_P2;PMS_P1;PMS_P2;Temp;Humidity;BMP_temperature;BMP_pressure;BME280_temperature;BME280_humidity;BME280_pressure;Samples;Min_cycle;Max_cycle;Signal;HPM_P1;HPM_P2
2022/11/18 00:01:46;;;;;;;7.27;2.20;;;9.30;99.90;;;;;;5052289;28;20037;-55
2022/11/18 00:04:12;;;;;;;6.90;1.83;;;9.30;99.90;;;;;;5053078;28;20044;-52
2022/11/18 00:06:38;;;;;;;9.17;2.37;;;9.30;99.90;;;;;;5052571;28;20309;-54
2022/11/18 00:09:04;;;;;;;4.23;1.60;;;9.30;99.90;;;;;;5052747;28;20063;-54
2022/11/18 00:14:18;;;;;;;7.97;2.20;;;9.30;99.90;;;;;;5052635;28;20116;-52
2022/11/18 00:16:53;;;;;;;;;;;9.30;99.90;;;;;;5052982;28;20029;-54
2022/11/18 00:19:21;;;;;;;6.50;1.97;;;9.40;99.90;;;;;;5052358;28;20376;-55
2022/11/18 00:21:48;;;;;;;5.43;1.77;;;9.40;99.90;;;;;;5052571;28;20062;-53
2022/11/18 00:24:14;;;;;;;7.73;1.83;;;9.40;99.90;;;;;;5052455;28;20031;-53
2022/11/18 00:26:40;;;;;;;8.10;2.07;;;9.50;99.90;;;;;;5052214;28;20025;-54
2022/11/18 00:29:07;;;;;;;8.83;1.90;;;9.40;99.90;;;;;;5052167;28;20047;-49
2022/11/18 00:31:34;;;;;;;6.67;1.70;;;9.40;99.90;;;;;;5052130;28;20037;-55
2022/11/18 00:33:59;;;;;;;6.93;1.60;;;9.40;99.90;;;;;;5052248;28;20116;-53
2022/11/18 00:36:25;;;;;;;5.90;1.70;;;9.50;99.90;;;;;;5052020;28;20166;-52
2022/11/18 00:38:51;;;;;;;8.50;2.00;;;9.50;99.90;;;;;;5051995;28;20017;-53
2022/11/18 00:41:16;;;;;;;5.83;1.63;;;9.40;99.90;;;;;;5052059;28;20623;-53
2022/11/18 00:43:42;;;;;;;8.37;1.90;;;9.40;99.90;;;;;;5050658;28;20147;-55
2022/11/18 00:46:10;;;;;;;9.43;2.30;;;9.40;99.90;;;;;;5052265;28;20075;-54
2022/11/18 00:48:36;;;;;;;6.13;1.90;;;9.40;99.90;;;;;;5051543;28;20041;-52
2022/11/18 00:51:14;;;;;;;6.07;1.77;;;9.30;99.90;;;;;;5051995;28;20043;-55
2022/11/18 00:53:40;;;;;;;5.53;1.93;;;9.40;99.90;;;;;;5051914;28;20037;-55
2022/11/18 00:56:07;;;;;;;9.90;2.07;;;9.30;99.90;;;;;;5051742;28;20137;-50
2022/11/18 00:58:33;;;;;;;9.90;2.07;;;9.30;99.90;;;;;;5051626;28;20033;-55
2022/11/18 01:00:59;;;;;;;7.07;1.90;;;9.20;99.90;;;;;;5051556;28;20040;-53
2022/11/18 01:03:25;;;;;;;10.23;1.87;;;9.20;99.90;;;;;;5051833;28;20025;-53
2022/11/18 01:05:51;;;;;;;5.60;2.00;;;9.20;99.90;;;;;;5051664;28;20039;-55
2022/11/18 01:08:18;;;;;;;7.20;2.27;;;9.10;99.90;;;;;;5051418;28;20029;-51
2022/11/18 01:10:45;;;;;;;8.70;2.27;;;9.10;99.90;;;;;;5051264;28;20025;-53
2022/11/18 01:13:19;;;;;;;6.77;2.00;;;9.00;99.90;;;;;;5050471;28;20040;-52
2022/11/18 01:15:45;;;;;;;6.63;1.90;;;9.10;99.90;;;;;;5051334;28;20513;-51
2022/11/18 01:18:11;;;;;;;5.43;2.00;;;9.10;99.90;;;;;;5051282;28;20067;-53
2022/11/18 01:20:37;;;;;;;7.37;2.40;;;9.10;99.90;;;;;;5051149;28;20060;-52
2022/11/18 01:23:03;;;;;;;9.17;2.27;;;9.10;99.90;;;;;;5051577;28;20109;-53
2022/11/18 01:25:29;;;;;;;12.80;2.90;;;9.10;99.90;;;;;;5051307;28;20029;-52
2022/11/18 01:27:55;;;;;;;5.80;1.70;;;9.10;99.90;;;;;;5051181;28;20032;-56
2022/11/18 01:30:21;;;;;;;7.47;1.80;;;9.20;99.90;;;;;;5051298;28;20056;-51
2022/11/18 01:32:46;;;;;;;7.60;2.80;;;9.30;99.90;;;;;;5051046;28;20028;-51
2022/11/18 01:35:12;;;;;;;8.97;1.90;;;9.30;99.90;;;;;;5051106;28;20542;-55
2022/11/18 01:37:38;;;;;;;7.80;2.43;;;9.30;99.90;;;;;;5050885;28;20108;-49
2022/11/18 01:40:06;;;;;;;8.03;2.30;;;9.30;99.90;;;;;;5050838;28;20460;-53
2022/11/18 01:42:32;;;;;;;12.60;3.10;;;9.20;99.90;;;;;;5050954;28;20627;-53
2022/11/18 01:45:08;;;;;;;9.27;2.70;;;9.20;99.90;;;;;;5050958;28;20109;-54
2022/11/18 01:47:44;;;;;;;9.03;2.47;;;9.20;99.90;;;;;;5050895;28;20052;-54
2022/11/18 01:50:11;;;;;;;10.10;2.53;;;9.20;99.90;;;;;;5050512;28;20098;-53
2022/11/18 01:52:38;;;;;;;7.60;2.57;;;9.20;99.90;;;;;;5050808;28;20039;-54
2022/11/18 01:55:18;;;;;;;7.27;2.70;;;9.10;99.90;;;;;;5050971;28;20393;-55
2022/11/18 01:57:47;;;;;;;8.83;2.53;;;9.10;99.90;;;;;;5050588;28;20021;-53
2022/11/18 02:00:13;;;;;;;8.18;2.17;;;9.10;99.90;;;;;;5050585;28;20477;-53
2022/11/18 02:02:38;;;;;;;11.33;2.53;;;9.10;99.90;;;;;;5050560;28;20430;-54
2022/11/18 02:05:07;;;;;;;6.47;2.13;;;9.20;99.90;;;;;;5050582;28;20122;-52
2022/11/18 02:07:35;;;;;;;6.32;2.22;;;9.20;99.90;;;;;;5050418;28;20639;-49
2022/11/18 02:10:05;;;;;;;8.35;2.20;;;9.20;99.90;;;;;;5050348;28;20056;-52
2022/11/18 02:12:31;;;;;;;6.97;2.10;;;9.10;99.90;;;;;;5050392;28;20028;-49
2022/11/18 02:14:57;;;;;;;8.10;2.13;;;9.10;99.90;;;;;;5050548;28;20036;-53
2022/11/18 02:17:29;;;;;;;8.27;2.20;;;9.20;99.90;;;;;;5050303;28;20068;-53
2022/11/18 02:20:25;;;;;;;9.07;2.43;;;9.20;99.90;;;;;;5050401;28;20401;-54
2022/11/18 02:22:57;;;;;;;10.20;2.10;;;9.20;99.90;;;;;;5028427;28;20037;-51
2022/11/18 02:25:23;;;;;;;10.47;2.30;;;9.20;99.90;;;;;;5050428;28;20025;-54
2022/11/18 02:28:10;;;;;;;9.07;2.07;;;9.10;99.90;;;;;;5050252;28;20033;-54
2022/11/18 02:30:56;;;;;;;6.70;1.90;;;9.20;99.90;;;;;;5050304;28;20341;-54
2022/11/18 02:33:27;;;;;;;7.73;2.00;;;9.20;99.90;;;;;;5050405;28;20154;-54
2022/11/18 02:35:59;;;;;;;7.50;2.60;;;9.20;99.90;;;;;;5050190;28;20032;-54
2022/11/18 02:38:33;;;;;;;7.13;2.50;;;9.20;99.90;;;;;;5050430;28;20060;-52
2022/11/18 02:41:15;;;;;;;6.90;2.30;;;9.20;99.90;;;;;;5050177;28;20426;-54
2022/11/18 02:43:51;;;;;;;7.23;1.60;;;9.20;99.90;;;;;;5050432;28;20371;-52
2022/11/18 02:46:24;;;;;;;6.63;2.07;;;9.30;99.90;;;;;;5050499;28;20474;-56
2022/11/18 02:48:51;;;;;;;5.93;1.70;;;9.30;99.90;;;;;;5050223;28;20029;-54
2022/11/18 02:51:24;;;;;;;8.47;1.97;;;9.30;99.90;;;;;;5050253;28;20120;-51
2022/11/18 02:53:51;;;;;;;11.97;2.20;;;9.30;99.90;;;;;;5050182;28;20091;-51
2022/11/18 02:56:19;;;;;;;7.50;1.50;;;9.30;99.90;;;;;;5050058;28;20029;-51
2022/11/18 02:58:45;;;;;;;9.03;2.00;;;9.30;99.90;;;;;;5049957;28;20060;-53
2022/11/18 03:01:27;;;;;;;7.30;1.97;;;9.30;99.90;;;;;;5049916;28;20074;-50
2022/11/18 03:03:52;;;;;;;6.00;1.90;;;9.30;99.90;;;;;;5050046;28;20040;-51
2022/11/18 03:06:30;;;;;;;8.77;2.00;;;9.30;99.90;;;;;;5050079;28;20038;-53
2022/11/18 03:09:31;;;;;;;6.90;1.97;;;9.20;99.90;;;;;;5049858;28;20115;-49
2022/11/18 03:12:13;;;;;;;7.03;2.13;;;9.20;99.90;;;;;;5017663;28;20143;-50
2022/11/18 03:14:57;;;;;;;8.47;1.80;;;9.20;99.90;;;;;;5050061;28;20124;-52
2022/11/18 03:17:56;;;;;;;5.70;2.03;;;9.20;99.90;;;;;;5050198;28;20033;-51
2022/11/18 03:20:29;;;;;;;7.75;2.60;;;9.20;99.90;;;;;;5049978;28;20045;-51
2022/11/18 03:23:13;;;;;;;5.70;2.30;;;9.20;99.90;;;;;;5050240;28;20055;-53
2022/11/18 03:25:49;;;;;;;11.50;2.33;;;9.10;99.90;;;;;;5050003;28;20041;-50
2022/11/18 03:28:25;;;;;;;8.43;1.90;;;9.10;99.90;;;;;;5049550;28;20049;-52
2022/11/18 03:31:12;;;;;;;6.30;1.80;;;9.20;99.90;;;;;;5049657;28;20087;-55
2022/11/18 03:33:44;;;;;;;7.43;2.00;;;9.20;99.90;;;;;;5049890;28;20143;-53
2022/11/18 03:36:12;;;;;;;8.40;2.00;;;9.20;99.90;;;;;;5052096;28;20063;-51
2022/11/18 03:38:47;;;;;;;10.53;2.47;;;9.20;99.90;;;;;;5052813;28;20029;-57
2022/11/18 03:41:16;;;;;;;8.03;2.10;;;9.20;99.90;;;;;;5053382;28;20079;-54
2022/11/18 03:43:51;;;;;;;6.38;1.83;;;9.20;99.90;;;;;;5053336;28;20116;-54
2022/11/18 03:46:25;;;;;;;7.73;2.07;;;9.20;99.90;;;;;;5053115;28;20033;-53
2022/11/18 03:48:54;;;;;;;7.37;2.00;;;9.20;99.90;;;;;;5052924;28;20029;-51
2022/11/18 03:51:23;;;;;;;8.90;2.20;;;9.30;99.90;;;;;;5053170;28;20041;-53
2022/11/18 03:54:02;;;;;;;10.57;2.30;;;9.30;99.90;;;;;;5053201;28;20037;-54
2022/11/18 03:56:38;;;;;;;7.83;2.47;;;9.30;99.90;;;;;;5053120;28;20040;-54
2022/11/18 03:59:18;;;;;;;6.17;2.17;;;9.30;99.90;;;;;;5052715;28;20100;-55
2022/11/18 04:02:11;;;;;;;8.47;1.93;;;9.30;99.90;;;;;;5052965;28;20393;-54
2022/11/18 04:04:37;;;;;;;6.10;1.70;;;9.30;99.90;;;;;;5045169;28;20048;-55
2022/11/18 04:07:28;;;;;;;8.73;2.33;;;9.30;99.90;;;;;;5052592;28;20552;-54
2022/11/18 04:10:14;;;;;;;6.20;2.13;;;9.30;99.90;;;;;;5020951;28;20049;-54
2022/11/18 04:12:55;;;;;;;10.17;1.90;;;9.30;99.90;;;;;;5052393;28;20033;-54
2022/11/18 04:15:23;;;;;;;9.03;2.10;;;9.40;99.90;;;;;;5052694;28;20025;-55
2022/11/18 04:17:48;;;;;;;7.43;2.10;;;9.30;99.90;;;;;;5052439;28;20098;-54
2022/11/18 04:20:17;;;;;;;5.47;2.13;;;9.40;99.90;;;;;;5052287;28;20025;-53
2022/11/18 04:22:43;;;;;;;11.57;3.03;;;9.30;99.90;;;;;;5052802;28;20404;-54
2022/11/18 04:25:09;;;;;;;6.50;2.00;;;9.30;99.90;;;;;;5052426;28;20044;-53
2022/11/18 04:27:34;;;;;;;9.27;3.23;;;9.30;99.90;;;;;;5052232;28;20036;-53
2022/11/18 04:30:00;;;;;;;9.83;2.43;;;9.30;99.90;;;;;;5052156;28;20113;-54
2022/11/18 04:32:26;;;;;;;10.80;2.10;;;9.30;99.90;;;;;;5052699;28;20474;-55
2022/11/18 04:34:52;;;;;;;7.13;2.17;;;9.30;99.90;;;;;;5052381;28;20501;-51
2022/11/18 04:37:17;;;;;;;10.87;3.17;;;9.30;99.90;;;;;;5051986;28;20040;-54
2022/11/18 04:39:43;;;;;;;9.20;2.67;;;9.30;99.90;;;;;;5051889;28;20074;-55
2022/11/18 04:42:08;;;;;;;9.57;2.10;;;9.30;99.90;;;;;;5052019;28;20045;-51
2022/11/18 04:44:34;;;;;;;9.30;2.33;;;9.30;99.90;;;;;;5052157;28;20037;-53
2022/11/18 04:47:03;;;;;;;7.43;2.10;;;9.30;99.90;;;;;;5051789;28;20028;-55
2022/11/18 04:49:29;;;;;;;6.85;2.05;;;9.30;99.90;;;;;;5051874;28;20044;-54
2022/11/18 04:51:55;;;;;;;9.37;2.43;;;9.40;99.90;;;;;;5051792;28;20036;-54
2022/11/18 04:54:22;;;;;;;7.10;1.90;;;9.30;99.90;;;;;;5051868;28;20059;-53
2022/11/18 04:56:48;;;;;;;9.47;1.90;;;9.30;99.90;;;;;;5051573;28;20037;-50
2022/11/18 04:59:15;;;;;;;10.90;2.27;;;9.30;99.90;;;;;;5051558;28;20032;-52
2022/11/18 05:01:41;;;;;;;8.53;2.23;;;9.30;99.90;;;;;;5051662;28;20032;-53
2022/11/18 05:04:07;;;;;;;7.23;2.00;;;9.40;99.90;;;;;;5052184;28;20106;-50
2022/11/18 05:06:33;;;;;;;6.97;2.27;;;9.30;99.90;;;;;;5051862;28;20036;-50
2022/11/18 05:09:00;;;;;;;6.80;1.90;;;9.30;99.90;;;;;;5051504;28;20379;-49
2022/11/18 05:14:11;;;;;;;6.27;2.37;;;9.40;99.90;;;;;;5051343;28;20029;-50
2022/11/18 05:16:37;;;;;;;6.70;2.53;;;9.30;99.90;;;;;;5051359;28;20029;-52
2022/11/18 05:19:05;;;;;;;7.07;2.90;;;9.30;99.90;;;;;;5051178;28;20025;-52
2022/11/18 05:21:30;;;;;;;9.73;3.00;;;9.30;99.90;;;;;;5051512;28;20032;-52
2022/11/18 05:23:58;;;;;;;10.03;2.47;;;9.30;99.90;;;;;;5051398;28;20098;-53
2022/11/18 05:26:24;;;;;;;10.37;2.30;;;9.30;99.90;;;;;;5051490;28;20029;-50
2022/11/18 05:28:50;;;;;;;10.13;2.57;;;9.30;99.90;;;;;;5051142;28;20041;-53
2022/11/18 05:31:16;;;;;;;9.30;2.60;;;9.30;99.90;;;;;;5051028;28;20394;-53
2022/11/18 05:33:43;;;;;;;8.63;2.80;;;9.30;99.90;;;;;;5051642;28;20052;-50
2022/11/18 05:36:11;;;;;;;14.00;2.60;;;9.30;99.90;;;;;;5051314;28;20032;-55
2022/11/18 05:38:38;;;;;;;11.25;3.63;;;9.30;99.90;;;;;;5050804;28;20029;-54
2022/11/18 05:41:04;;;;;;;11.20;3.03;;;9.30;99.90;;;;;;5051278;28;20504;-51
2022/11/18 05:43:30;;;;;;;10.67;2.77;;;9.30;99.90;;;;;;5050818;28;20029;-50
2022/11/18 05:45:57;;;;;;;8.40;2.57;;;9.30;99.90;;;;;;5050901;28;20067;-52
2022/11/18 05:48:23;;;;;;;11.13;2.77;;;9.30;99.90;;;;;;5050890;28;20033;-51
2022/11/18 05:50:51;;;;;;;7.30;2.60;;;9.20;99.90;;;;;;5050973;28;20036;-53
2022/11/18 05:53:18;;;;;;;11.13;2.93;;;9.20;99.90;;;;;;5051078;28;20120;-52
2022/11/18 05:55:55;;;;;;;8.50;2.87;;;9.20;99.90;;;;;;5050704;28;20033;-51
2022/11/18 05:58:21;;;;;;;10.50;3.70;;;9.20;99.90;;;;;;5050046;28;20432;-53
2022/11/18 06:00:51;;;;;;;9.53;3.10;;;9.10;99.90;;;;;;5050785;28;20048;-50
2022/11/18 06:03:19;;;;;;;;;;;9.10;99.90;;;;;;5051576;28;20025;-51
2022/11/18 06:05:46;;;;;;;11.80;3.00;;;9.10;99.90;;;;;;5050731;28;19908;-50
2022/11/18 06:08:16;;;;;;;8.13;3.30;;;9.10;99.90;;;;;;5050503;28;20078;-48
2022/11/18 06:10:44;;;;;;;11.60;3.50;;;9.10;99.90;;;;;;5050296;28;20029;-49
2022/11/18 06:13:27;;;;;;;8.13;3.70;;;9.10;99.90;;;;;;5050352;28;20389;-49
2022/11/18 06:15:53;;;;;;;14.30;3.93;;;9.00;99.90;;;;;;5050601;28;20025;-48
2022/11/18 06:18:24;;;;;;;11.37;3.60;;;9.00;99.90;;;;;;5050392;28;20055;-50
2022/11/18 06:20:54;;;;;;;9.40;3.00;;;9.00;99.90;;;;;;5050293;28;20170;-51
2022/11/18 06:23:20;;;;;;;9.23;3.37;;;9.00;99.90;;;;;;5050668;28;20031;-52
2022/11/18 06:25:46;;;;;;;13.93;3.70;;;9.00;99.90;;;;;;5050421;28;20490;-50
2022/11/18 06:28:13;;;;;;;9.60;3.73;;;8.90;99.90;;;;;;5050272;28;20453;-50
2022/11/18 06:30:39;;;;;;;13.93;4.30;;;8.90;99.90;;;;;;5050245;28;20033;-50
2022/11/18 06:33:05;;;;;;;9.30;3.43;;;9.00;99.90;;;;;;5050358;28;20036;-52
2022/11/18 06:35:31;;;;;;;11.67;3.80;;;9.00;99.90;;;;;;5050290;28;20029;-53
2022/11/18 06:37:56;;;;;;;10.03;3.97;;;9.00;99.90;;;;;;5050003;28;20474;-50
2022/11/18 06:40:22;;;;;;;8.40;3.40;;;8.90;99.90;;;;;;5049908;28;20037;-51
2022/11/18 06:45:32;;;;;;;10.97;4.10;;;8.90;99.90;;;;;;5050351;28;20243;-49
2022/11/18 06:48:01;;;;;;;12.10;4.00;;;8.90;99.90;;;;;;5050060;28;20482;-49
2022/11/18 06:50:27;;;;;;;12.07;4.68;;;8.90;99.90;;;;;;5050177;28;20104;-54
2022/11/18 06:52:53;;;;;;;9.47;4.40;;;8.90;99.90;;;;;;5050023;28;20044;-51
2022/11/18 06:55:19;;;;;;;11.07;4.37;;;8.90;99.90;;;;;;5050117;28;20493;-51
2022/11/18 06:57:45;;;;;;;11.67;4.27;;;8.90;99.90;;;;;;5049855;28;20469;-51
2022/11/18 07:00:11;;;;;;;13.47;4.67;;;8.90;99.90;;;;;;5049960;28;20032;-52
2022/11/18 07:02:37;;;;;;;12.63;3.70;;;9.00;99.90;;;;;;5049941;28;20119;-51
2022/11/18 07:05:05;;;;;;;12.13;3.57;;;9.00;99.90;;;;;;5050137;28;20124;-56
2022/11/18 07:07:33;;;;;;;8.10;3.40;;;9.00;99.90;;;;;;5049849;28;20033;-53
2022/11/18 07:09:58;;;;;;;8.00;3.30;;;9.10;99.90;;;;;;5050404;28;20064;-55
2022/11/18 07:12:24;;;;;;;11.37;4.23;;;9.10;99.90;;;;;;5053587;28;20477;-54
2022/11/18 07:14:50;;;;;;;14.13;4.33;;;9.10;99.90;;;;;;5053779;28;20036;-53
2022/11/18 07:17:15;;;;;;;13.60;3.80;;;9.10;99.90;;;;;;5053456;28;20024;-53
2022/11/18 07:19:41;;;;;;;8.17;3.40;;;9.10;99.90;;;;;;5053965;28;20098;-52
2022/11/18 07:22:07;;;;;;;11.10;3.53;;;9.10;99.90;;;;;;5053517;28;20546;-51
2022/11/18 07:24:33;;;;;;;11.30;3.13;;;9.10;99.90;;;;;;5053648;28;20035;-51
2022/11/18 07:26:59;;;;;;;9.30;3.90;;;9.10;99.90;;;;;;5053502;28;20485;-51
2022/11/18 07:29:24;;;;;;;16.30;4.40;;;9.10;99.90;;;;;;5053362;28;20100;-54
2022/11/18 07:31:50;;;;;;;9.57;3.90;;;9.10;99.90;;;;;;5053339;28;20036;-53
2022/11/18 07:34:16;;;;;;;14.77;4.80;;;9.10;99.90;;;;;;5053497;28;20029;-50
2022/11/18 07:36:42;;;;;;;10.23;3.57;;;9.10;99.90;;;;;;5053377;28;20033;-54
2022/11/18 07:39:08;;;;;;;13.50;4.70;;;9.20;99.90;;;;;;5053205;28;20029;-52
2022/11/18 07:41:34;;;;;;;14.30;4.20;;;9.20;99.90;;;;;;5053130;28;20039;-53
2022/11/18 07:44:02;;;;;;;9.67;3.90;;;9.20;99.90;;;;;;5053279;28;20033;-54
2022/11/18 07:46:34;;;;;;;10.17;3.53;;;9.20;99.90;;;;;;5052850;28;20033;-55
2022/11/18 07:49:02;;;;;;;14.03;4.90;;;9.20;99.90;;;;;;5053080;28;20040;-53
2022/11/18 07:51:31;;;;;;;13.23;4.40;;;9.20;99.90;;;;;;5053082;28;20031;-54
2022/11/18 07:53:57;;;;;;;11.50;3.50;;;9.20;99.90;;;;;;5053330;28;20033;-50
2022/11/18 07:56:23;;;;;;;16.83;4.53;;;9.30;99.90;;;;;;5053206;28;20032;-54
2022/11/18 07:58:53;;;;;;;10.80;3.80;;;9.30;99.90;;;;;;5052655;28;20020;-56
2022/11/18 08:01:21;;;;;;;7.17;2.93;;;9.30;99.90;;;;;;5053151;28;20028;-53
2022/11/18 08:03:48;;;;;;;12.00;4.20;;;9.30;99.90;;;;;;5053080;28;20036;-54
2022/11/18 08:06:15;;;;;;;11.67;3.63;;;9.40;99.90;;;;;;5052870;28;20477;-52
2022/11/18 08:08:42;;;;;;;11.63;3.83;;;9.40;99.90;;;;;;5052469;28;20037;-54
2022/11/18 08:11:10;;;;;;;12.93;4.00;;;9.50;99.90;;;;;;5052550;28;20396;-55
2022/11/18 08:13:36;;;;;;;11.77;3.73;;;9.50;99.90;;;;;;5052634;28;20036;-55
2022/11/18 08:16:04;;;;;;;9.03;3.83;;;9.50;99.90;;;;;;5053169;28;20113;-52
2022/11/18 08:18:31;;;;;;;12.23;3.15;;;9.50;99.90;;;;;;5052185;28;20485;-56
2022/11/18 08:21:04;;;;;;;9.97;3.50;;;9.60;99.90;;;;;;5051904;28;20463;-55
2022/11/18 08:23:30;;;;;;;13.17;3.57;;;9.60;99.90;;;;;;5052499;28;20079;-55
2022/11/18 08:26:02;;;;;;;11.80;4.00;;;9.50;99.90;;;;;;5052228;28;20481;-55
2022/11/18 08:28:28;;;;;;;10.37;4.20;;;9.60;99.90;;;;;;5052211;28;20426;-55
2022/11/18 08:30:54;;;;;;;10.47;4.20;;;9.60;99.90;;;;;;5052198;28;20192;-56
2022/11/18 08:33:19;;;;;;;12.50;3.40;;;9.70;99.90;;;;;;5052343;28;20473;-56
2022/11/18 08:35:45;;;;;;;7.20;2.87;;;9.60;99.90;;;;;;5052373;28;20052;-52
2022/11/18 08:38:11;;;;;;;8.67;3.00;;;9.60;99.90;;;;;;5052113;28;20099;-56
2022/11/18 08:40:38;;;;;;;7.73;3.03;;;9.60;99.90;;;;;;5051834;28;20028;-56
2022/11/18 08:43:04;;;;;;;8.00;3.10;;;9.60;99.90;;;;;;5052166;28;20519;-54
2022/11/18 08:45:30;;;;;;;10.97;3.43;;;9.60;99.90;;;;;;5052196;28;20036;-55
2022/11/18 08:47:56;;;;;;;8.90;2.97;;;9.60;99.90;;;;;;5051738;28;20411;-54
2022/11/18 08:50:21;;;;;;;8.57;3.20;;;9.60;99.90;;;;;;5051546;28;20033;-55
2022/11/18 08:52:47;;;;;;;14.23;3.80;;;9.70;99.90;;;;;;5051701;28;20067;-56
2022/11/18 08:55:13;;;;;;;9.23;3.37;;;9.70;99.90;;;;;;5051621;28;20390;-55
2022/11/18 08:57:38;;;;;;;13.50;3.60;;;9.80;99.90;;;;;;5051310;28;20021;-55
2022/11/18 09:00:05;;;;;;;11.03;3.80;;;9.80;99.90;;;;;;5051203;28;20040;-56
2022/11/18 09:02:31;;;;;;;10.33;3.50;;;9.80;99.90;;;;;;5051282;28;20497;-54
2022/11/18 09:04:57;;;;;;;12.83;3.80;;;9.80;99.90;;;;;;5051461;28;20033;-55
2022/11/18 09:07:22;;;;;;;13.03;3.63;;;9.80;99.90;;;;;;5051162;28;20456;-55
2022/11/18 09:09:48;;;;;;;9.50;3.30;;;9.80;99.90;;;;;;5050898;28;20389;-55
2022/11/18 09:12:16;;;;;;;8.40;3.53;;;9.90;99.90;;;;;;5051021;28;20029;-53
2022/11/18 09:14:45;;;;;;;8.27;3.17;;;9.90;99.90;;;;;;5051244;28;20683;-53
2022/11/18 09:17:13;;;;;;;11.50;3.57;;;9.90;99.90;;;;;;5051042;28;20070;-55
2022/11/18 09:19:39;;;;;;;7.97;3.33;;;10.10;99.90;;;;;;5051043;28;20021;-55
2022/11/18 09:22:05;;;;;;;9.93;3.50;;;10.30;99.90;;;;;;5051229;28;20032;-54
2022/11/18 09:24:31;;;;;;;9.20;3.10;;;10.30;99.90;;;;;;5051204;28;20031;-56
2022/11/18 09:26:57;;;;;;;11.13;3.50;;;10.50;99.90;;;;;;5051182;28;20497;-55
2022/11/18 09:29:25;;;;;;;7.93;3.17;;;10.60;99.90;;;;;;5051066;28;20036;-54
2022/11/18 09:31:51;;;;;;;7.30;3.07;;;10.60;99.90;;;;;;5050964;28;20032;-55
2022/11/18 09:34:17;;;;;;;10.07;4.37;;;10.90;99.90;;;;;;5050397;28;20029;-55
2022/11/18 09:36:43;;;;;;;8.10;3.30;;;11.10;99.90;;;;;;5050829;28;20031;-57
2022/11/18 09:39:09;;;;;;;10.77;3.60;;;11.50;99.90;;;;;;5050806;28;20381;-57
2022/11/18 09:41:46;;;;;;;8.70;2.75;;;12.00;99.90;;;;;;5051030;28;20390;-56
2022/11/18 09:44:33;;;;;;;7.97;2.67;;;12.10;99.90;;;;;;5050914;28;20033;-54
2022/11/18 09:47:31;;;;;;;8.80;3.25;;;13.00;99.90;;;;;;5050760;28;20175;-54
2022/11/18 09:50:03;;;;;;;10.48;2.92;;;13.90;99.90;;;;;;5050592;28;20390;-54
2022/11/18 09:52:54;;;;;;;11.20;2.78;;;14.80;99.90;;;;;;5050712;28;20033;-54
2022/11/18 09:55:20;;;;;;;8.35;2.50;;;15.60;99.90;;;;;;5050800;28;20545;-54
2022/11/18 09:57:47;;;;;;;9.18;2.65;;;16.50;99.90;;;;;;5050430;28;20120;-55
2022/11/18 10:00:21;;;;;;;8.80;2.40;;;17.30;99.90;;;;;;5050507;28;20024;-56
2022/11/18 10:02:51;;;;;;;6.07;2.60;;;18.00;99.20;;;;;;5050544;28;20059;-56
2022/11/18 10:05:22;;;;;;;6.40;2.42;;;18.70;97.10;;;;;;5050534;28;20033;-54
2022/11/18 10:08:06;;;;;;;8.07;2.70;;;19.30;96.20;;;;;;5050354;28;20083;-55
2022/11/18 10:10:52;;;;;;;13.35;2.95;;;20.00;94.30;;;;;;5050485;28;20032;-56
2022/11/18 10:13:32;;;;;;;6.78;2.58;;;20.20;92.80;;;;;;5063950;22;20132;-58
2022/11/18 10:16:25;;;;;;;8.48;2.70;;;20.30;91.30;;;;;;5050687;28;20037;-58
2022/11/18 10:19:12;;;;;;;6.28;2.60;;;20.30;91.30;;;;;;5050532;28;20032;-57
2022/11/18 10:22:02;;;;;;;8.60;3.00;;;20.30;89.90;;;;;;5050394;28;20040;-57
2022/11/18 10:24:49;;;;;;;6.05;2.80;;;20.80;86.90;;;;;;5050315;28;20526;-58
2022/11/18 10:27:16;;;;;;;9.43;2.92;;;20.50;89.30;;;;;;5050312;28;20505;-58
2022/11/18 10:29:44;;;;;;;8.02;3.03;;;19.80;89.50;;;;;;5050154;28;20033;-59
2022/11/18 10:32:13;;;;;;;6.85;2.55;;;19.60;90.60;;;;;;5050268;28;20029;-59
2022/11/18 10:34:51;;;;;;;8.20;3.13;;;20.10;90.10;;;;;;5050204;28;20032;-59
2022/11/18 10:37:29;;;;;;;9.13;2.90;;;19.90;87.10;;;;;;5050165;28;20512;-58
2022/11/18 10:40:03;;;;;;;9.00;3.20;;;18.70;90.80;;;;;;5050152;28;20025;-59
2022/11/18 10:42:37;;;;;;;6.60;2.88;;;17.80;92.80;;;;;;5049057;28;20033;-59
2022/11/18 10:45:28;;;;;;;8.27;2.83;;;17.70;93.70;;;;;;5052692;28;20037;-59
2022/11/18 10:48:20;;;;;;;8.20;3.08;;;17.20;94.80;;;;;;5054140;28;20029;-59
2022/11/18 10:50:49;;;;;;;12.35;3.35;;;16.30;96.20;;;;;;5051499;28;20052;-58
2022/11/18 10:53:23;;;;;;;;;;;15.70;98.40;;;;;;5054536;28;20117;-57
2022/11/18 10:55:59;;;;;;;8.48;2.63;;;14.90;99.90;;;;;;5054013;28;19986;-57
2022/11/18 10:58:27;;;;;;;11.13;2.47;;;14.70;99.90;;;;;;5054332;28;20040;-57
2022/11/18 11:01:09;;;;;;;8.70;3.22;;;14.40;99.90;;;;;;5052653;28;20060;-57
2022/11/18 11:03:37;;;;;;;7.20;2.63;;;14.10;99.90;;;;;;5053897;28;20365;-58
2022/11/18 11:06:25;;;;;;;9.50;3.10;;;14.10;99.90;;;;;;5052611;28;20035;-57
2022/11/18 11:08:53;;;;;;;8.85;2.55;;;14.30;99.90;;;;;;5053734;28;20031;-58
2022/11/18 11:11:29;;;;;;;9.18;2.72;;;15.40;99.90;;;;;;5053771;28;20085;-59
2022/11/18 11:14:10;;;;;;;7.78;2.38;;;15.90;99.90;;;;;;5053827;28;20451;-58
2022/11/18 11:16:45;;;;;;;10.15;2.28;;;15.70;99.90;;;;;;5053596;28;20033;-58
2022/11/18 11:19:13;;;;;;;8.75;2.35;;;15.10;99.90;;;;;;5053537;28;20445;-57
2022/11/18 11:21:39;;;;;;;8.75;2.70;;;14.70;99.90;;;;;;5053658;28;20386;-57
2022/11/18 11:24:11;;;;;;;7.63;2.58;;;14.30;99.90;;;;;;5053587;28;20039;-58
2022/11/18 11:26:55;;;;;;;9.95;2.63;;;14.20;99.90;;;;;;5053476;28;20033;-58
2022/11/18 11:29:33;;;;;;;10.38;2.72;;;14.00;99.90;;;;;;5053399;28;20033;-57
2022/11/18 11:32:24;;;;;;;9.35;2.90;;;14.00;99.90;;;;;;5053272;28;20025;-57
2022/11/18 11:35:14;;;;;;;11.60;2.80;;;14.20;99.90;;;;;;5053464;28;20033;-59
2022/11/18 11:37:58;;;;;;;8.43;2.55;;;14.30;99.90;;;;;;5053326;28;20024;-57
2022/11/18 11:40:49;;;;;;;7.65;3.13;;;14.40;99.90;;;;;;5053250;28;20037;-56
2022/11/18 11:43:53;;;;;;;8.00;2.60;;;14.40;99.90;;;;;;5053355;28;20207;-57
2022/11/18 11:46:26;;;;;;;11.80;2.92;;;14.50;99.90;;;;;;5041985;28;20080;-57
2022/11/18 11:48:59;;;;;;;13.55;3.17;;;14.00;99.90;;;;;;5054141;28;20043;-56
2022/11/18 11:51:36;;;;;;;11.50;3.08;;;13.70;99.90;;;;;;5053710;28;20029;-55
2022/11/18 11:54:33;;;;;;;6.97;2.63;;;13.50;99.90;;;;;;5053786;28;20048;-59
2022/11/18 11:57:11;;;;;;;9.65;3.10;;;13.20;99.90;;;;;;5052410;28;20029;-58
2022/11/18 11:59:50;;;;;;;11.68;2.72;;;12.90;99.90;;;;;;5053596;28;20024;-56
2022/11/18 12:02:33;;;;;;;9.82;3.05;;;12.90;99.90;;;;;;5053214;28;20397;-58
2022/11/18 12:05:06;;;;;;;11.50;3.25;;;12.80;99.90;;;;;;5053391;28;20029;-57
2022/11/18 12:07:44;;;;;;;14.02;3.10;;;12.70;99.90;;;;;;5052939;28;20486;-55
2022/11/18 12:10:41;;;;;;;9.20;2.17;;;12.60;99.90;;;;;;5052651;28;20041;-57
2022/11/18 12:13:23;;;;;;;10.30;2.35;;;12.60;99.90;;;;;;5052487;28;20041;-55
2022/11/18 12:16:24;;;;;;;11.05;2.20;;;12.60;99.90;;;;;;5052752;28;20433;-58
2022/11/18 12:18:57;;;;;;;7.82;1.73;;;12.60;99.90;;;;;;4997860;28;20428;-55
2022/11/18 12:21:45;;;;;;;9.65;2.08;;;12.70;99.90;;;;;;5052923;28;20307;-56
2022/11/18 12:24:24;;;;;;;10.05;2.13;;;12.70;99.90;;;;;;5052817;28;20070;-58
2022/11/18 12:26:50;;;;;;;10.30;2.05;;;12.60;99.90;;;;;;5052348;28;20108;-57
2022/11/18 12:29:19;;;;;;;10.07;2.05;;;12.60;99.90;;;;;;5052258;28;20040;-58
2022/11/18 12:31:46;;;;;;;12.10;2.45;;;12.60;99.90;;;;;;5052116;28;20029;-58
2022/11/18 12:34:29;;;;;;;10.85;2.20;;;12.50;99.90;;;;;;5052365;28;20500;-58
2022/11/18 12:36:55;;;;;;;8.75;2.15;;;12.60;99.90;;;;;;5052143;28;20033;-58
2022/11/18 12:39:24;;;;;;;7.50;2.00;;;12.50;99.90;;;;;;5052589;28;20107;-58
2022/11/18 12:44:49;;;;;;;8.05;1.73;;;12.40;99.90;;;;;;5052198;28;20033;-55
2022/11/18 12:47:40;;;;;;;7.53;1.70;;;12.40;99.90;;;;;;5052111;28;20056;-58
2022/11/18 12:50:13;;;;;;;6.28;1.60;;;12.30;99.90;;;;;;5051546;28;20029;-58
2022/11/18 12:52:38;;;;;;;11.18;1.77;;;12.20;99.90;;;;;;5050819;28;20393;-55
2022/11/18 12:55:24;;;;;;;10.55;2.42;;;12.20;99.90;;;;;;5052081;28;20021;-55
2022/11/18 12:57:51;;;;;;;8.82;1.73;;;12.10;99.90;;;;;;5051789;28;20032;-56
2022/11/18 13:00:23;;;;;;;11.75;2.10;;;12.00;99.90;;;;;;5051519;28;20481;-57
2022/11/18 13:02:57;;;;;;;11.30;2.10;;;11.90;99.90;;;;;;5051649;28;20029;-56
2022/11/18 13:05:32;;;;;;;7.45;1.70;;;12.00;99.90;;;;;;5051977;28;20174;-56
2022/11/18 13:08:13;;;;;;;8.55;2.03;;;12.00;99.90;;;;;;5051386;28;20037;-56
2022/11/18 13:11:43;;;;;;;8.23;2.00;;;12.00;99.90;;;;;;5051487;28;20033;-57
2022/11/18 13:13:40;;;;;;;9.60;1.75;;;12.00;99.90;;;;;;5051327;28;20041;-56
2022/11/18 13:19:07;;;;;;;9.07;1.93;;;12.00;99.90;;;;;;5051682;28;20075;-57
2022/11/18 13:24:20;;;;;;;8.23;1.70;;;12.60;99.90;;;;;;5051329;28;20107;-58
2022/11/18 13:26:47;;;;;;;9.18;2.03;;;14.00;99.90;;;;;;5051207;28;20116;-58
2022/11/18 13:29:32;;;;;;;13.98;2.10;;;14.70;99.90;;;;;;5051084;28;20060;-58